Time;durP1;ratioP1;P1;durP2;ratioP2;P2;SDS_P1;SDS_P2;PMS_P1;PMS_P2;Temp;Humidity;BMP_temperature;BMP_pressure;BME280_temperature;BME280_humidity;BME280_pressure;Samples;Min_cycle;Max_cycle;Signal;HPM_P1;HPM_P2
2023/10/11 00:01:29;;;;;;;0.80;0.80;;;;;;;;;;5134063;28;20528;-65
2023/10/11 00:03:58;;;;;;;0.80;0.80;;;;;;;;;;5133688;28;20935;-65
2023/10/11 00:06:26;;;;;;;1.00;1.00;;;;;;;;;;5134592;28;20516;-65
2023/10/11 00:08:53;;;;;;;1.27;1.17;;;;;;;;;;5133893;28;20532;-65
2023/10/11 00:11:27;;;;;;;0.97;0.97;;;;;;;;;;5133571;28;20441;-65
2023/10/11 00:13:55;;;;;;;1.20;1.10;;;;;;;;;;5136484;27;20773;-65
2023/10/11 00:16:22;;;;;;;0.70;0.70;;;;;;;;;;5137745;27;20812;-65
2023/10/11 00:18:55;;;;;;;1.00;1.00;;;;;;;;;;5137769;27;20440;-65
2023/10/11 00:21:35;;;;;;;0.80;0.80;;;;;;;;;;5137812;27;20420;-65
2023/10/11 00:24:03;;;;;;;0.70;0.70;;;;;;;;;;5137485;27;20424;-65
2023/10/11 00:26:31;;;;;;;0.70;0.70;;;;;;;;;;5137666;27;20930;-64
2023/10/11 00:28:59;;;;;;;1.00;1.00;;;;;;;;;;5137780;27;20432;-65
2023/10/11 00:31:26;;;;;;;0.80;0.80;;;;;;;;;;5137736;27;20465;-65
2023/10/11 00:33:54;;;;;;;1.27;1.17;;;;;;;;;;5137938;27;20532;-65
2023/10/11 00:36:29;;;;;;;0.87;0.87;;;;;;;;;;5137507;27;20814;-65
2023/10/11 00:38:56;;;;;;;1.03;1.00;;;;;;;;;;5137445;27;20426;-65
2023/10/11 00:41:25;;;;;;;1.43;1.33;;;;;;;;;;5137081;27;20445;-65
2023/10/11 00:43:54;;;;;;;0.90;0.90;;;;;;;;;;5136944;27;20468;-65
2023/10/11 00:46:22;;;;;;;1.73;1.63;;;;;;;;;;5137535;27;20442;-65
2023/10/11 00:48:54;;;;;;;0.70;0.70;;;;;;;;;;5137632;27;20421;-65
2023/10/11 00:51:23;;;;;;;1.07;1.07;;;;;;;;;;5137706;27;20479;-65
2023/10/11 00:53:51;;;;;;;0.90;0.90;;;;;;;;;;5136744;27;20440;-65
2023/10/11 00:56:20;;;;;;;0.70;0.70;;;;;;;;;;5136945;27;20468;-65
2023/10/11 00:58:47;;;;;;;0.80;0.80;;;;;;;;;;5136985;27;20543;-65
2023/10/11 01:01:17;;;;;;;0.80;0.80;;;;;;;;;;5137507;27;20473;-65
2023/10/11 01:03:45;;;;;;;1.40;1.30;;;;;;;;;;5136621;27;20469;-65
2023/10/11 01:06:12;;;;;;;0.70;0.70;;;;;;;;;;5136869;27;20469;-65
2023/10/11 01:08:39;;;;;;;0.73;0.73;;;;;;;;;;5136501;27;20911;-65
2023/10/11 01:11:11;;;;;;;0.70;0.70;;;;;;;;;;5136718;27;20855;-65
2023/10/11 01:13:42;;;;;;;1.10;1.00;;;;;;;;;;5136690;27;20913;-65
2023/10/11 01:16:14;;;;;;;0.80;0.80;;;;;;;;;;5136952;27;20457;-65
2023/10/11 01:18:43;;;;;;;0.70;0.70;;;;;;;;;;5136311;27;20422;-65
2023/10/11 01:21:13;;;;;;;3.13;2.33;;;;;;;;;;5136255;27;20902;-65
2023/10/11 01:23:40;;;;;;;1.13;1.07;;;;;;;;;;5136142;27;20433;-65
2023/10/11 01:26:08;;;;;;;1.40;1.30;;;;;;;;;;5136454;27;20941;-64
2023/10/11 01:28:36;;;;;;;0.80;0.80;;;;;;;;;;5136308;27;20521;-65
2023/10/11 01:31:08;;;;;;;0.80;0.80;;;;;;;;;;5136251;27;20504;-65
2023/10/11 01:33:36;;;;;;;1.00;1.00;;;;;;;;;;5136442;27;20478;-65
2023/10/11 01:36:05;;;;;;;0.80;0.80;;;;;;;;;;5136339;27;20475;-65
2023/10/11 01:38:33;;;;;;;0.80;0.80;;;;;;;;;;5135943;27;20528;-65
2023/10/11 01:41:06;;;;;;;0.70;0.70;;;;;;;;;;5136648;27;20432;-65
2023/10/11 01:43:34;;;;;;;1.13;1.03;;;;;;;;;;5136137;27;20449;-65
2023/10/11 01:46:01;;;;;;;0.80;0.80;;;;;;;;;;5136173;27;20948;-65
2023/10/11 01:48:28;;;;;;;13.30;1.37;;;;;;;;;;5136038;27;20549;-65
2023/10/11 01:51:01;;;;;;;0.70;0.70;;;;;;;;;;5136114;27;20458;-65
2023/10/11 01:53:29;;;;;;;0.70;0.70;;;;;;;;;;5135746;27;20430;-65
2023/10/11 01:55:57;;;;;;;1.97;1.07;;;;;;;;;;5136384;27;20548;-65
2023/10/11 01:58:25;;;;;;;0.77;0.77;;;;;;;;;;5135880;27;20437;-64
2023/10/11 02:00:53;;;;;;;0.70;0.70;;;;;;;;;;5135955;27;20448;-65
2023/10/11 02:03:20;;;;;;;0.80;0.80;;;;;;;;;;5135838;27;20448;-65
2023/10/11 02:05:47;;;;;;;0.83;0.77;;;;;;;;;;5135652;27;20555;-65
2023/10/11 02:08:17;;;;;;;0.70;0.70;;;;;;;;;;5135782;27;20469;-65
2023/10/11 02:10:44;;;;;;;0.70;0.70;;;;;;;;;;5135546;27;20452;-65
2023/10/11 02:13:13;;;;;;;1.03;0.97;;;;;;;;;;5135940;27;20475;-65
2023/10/11 02:15:40;;;;;;;0.80;0.80;;;;;;;;;;5135570;27;20511;-65
2023/10/11 02:18:10;;;;;;;0.70;0.70;;;;;;;;;;5135233;27;20440;-65
2023/10/11 02:20:44;;;;;;;0.70;0.70;;;;;;;;;;5135155;27;20502;-65
2023/10/11 02:23:12;;;;;;;0.90;0.87;;;;;;;;;;5135684;27;20423;-65
2023/10/11 02:25:41;;;;;;;0.80;0.80;;;;;;;;;;5135413;27;20444;-64
2023/10/11 02:28:10;;;;;;;1.37;1.27;;;;;;;;;;5134985;27;20487;-65
2023/10/11 02:30:41;;;;;;;1.20;1.10;;;;;;;;;;5135171;27;20552;-65
2023/10/11 02:33:11;;;;;;;0.80;0.80;;;;;;;;;;5135529;27;20446;-65
2023/10/11 02:35:51;;;;;;;0.70;0.70;;;;;;;;;;5133816;27;20540;-65
2023/10/11 02:38:23;;;;;;;1.70;1.60;;;;;;;;;;5135129;27;20436;-65
2023/10/11 02:40:55;;;;;;;0.70;0.70;;;;;;;;;;5135189;27;20439;-65
2023/10/11 02:43:24;;;;;;;1.00;1.00;;;;;;;;;;5135352;27;20429;-65
2023/10/11 02:45:52;;;;;;;0.87;0.87;;;;;;;;;;5134524;27;20447;-64
2023/10/11 02:48:20;;;;;;;1.00;0.90;;;;;;;;;;5134866;27;20467;-64
2023/10/11 02:50:47;;;;;;;0.80;0.80;;;;;;;;;;5134573;27;20913;-64
2023/10/11 02:53:22;;;;;;;0.80;0.80;;;;;;;;;;5134796;27;20756;-65
2023/10/11 02:55:57;;;;;;;0.80;0.80;;;;;;;;;;5134454;27;20512;-65
2023/10/11 02:58:24;;;;;;;1.40;1.30;;;;;;;;;;5134676;27;20428;-64
2023/10/11 03:01:02;;;;;;;0.70;0.70;;;;;;;;;;5134696;27;20445;-64
2023/10/11 03:03:29;;;;;;;0.70;0.70;;;;;;;;;;5134801;27;20435;-65
2023/10/11 03:05:57;;;;;;;0.70;0.70;;;;;;;;;;5134298;27;20437;-64
2023/10/11 03:08:26;;;;;;;0.80;0.80;;;;;;;;;;5134547;27;20761;-64
2023/10/11 03:10:54;;;;;;;0.80;0.80;;;;;;;;;;5134275;27;20435;-65
2023/10/11 03:13:24;;;;;;;0.80;0.80;;;;;;;;;;5134822;27;20430;-65
2023/10/11 03:15:55;;;;;;;1.80;1.70;;;;;;;;;;5134127;27;20894;-64
2023/10/11 03:18:26;;;;;;;0.80;0.80;;;;;;;;;;5134466;27;20448;-65
2023/10/11 03:21:08;;;;;;;1.00;1.00;;;;;;;;;;5134043;27;20445;-64
2023/10/11 03:23:43;;;;;;;0.80;0.80;;;;;;;;;;5134056;27;20508;-65
2023/10/11 03:26:16;;;;;;;0.80;0.80;;;;;;;;;;5134063;27;20460;-64
2023/10/11 03:28:44;;;;;;;0.80;0.80;;;;;;;;;;5134097;27;20905;-64
2023/10/11 03:31:13;;;;;;;2.13;2.03;;;;;;;;;;5134840;27;20509;-65
2023/10/11 03:33:41;;;;;;;1.47;1.30;;;;;;;;;;5134159;27;20436;-64
2023/10/11 03:36:17;;;;;;;0.80;0.80;;;;;;;;;;5133983;28;20835;-65
2023/10/11 03:38:51;;;;;;;1.10;1.00;;;;;;;;;;5134389;28;20904;-64
2023/10/11 03:41:25;;;;;;;1.07;1.07;;;;;;;;;;5133913;28;20966;-65
2023/10/11 03:43:54;;;;;;;0.70;0.70;;;;;;;;;;5134227;28;20857;-65
2023/10/11 03:46:28;;;;;;;0.80;0.80;;;;;;;;;;5134057;27;20622;-64
2023/10/11 03:49:09;;;;;;;3.30;3.10;;;;;;;;;;5138388;27;20445;-65
2023/10/11 03:51:43;;;;;;;0.80;0.80;;;;;;;;;;5137975;27;20898;-64
2023/10/11 03:54:13;;;;;;;0.97;0.97;;;;;;;;;;5137987;27;20483;-64
2023/10/11 03:56:45;;;;;;;0.80;0.80;;;;;;;;;;5137801;27;20473;-64
2023/10/11 03:59:12;;;;;;;1.13;1.13;;;;;;;;;;5138559;27;20426;-64
2023/10/11 04:01:43;;;;;;;0.90;0.90;;;;;;;;;;5137626;27;20517;-64
2023/10/11 04:04:10;;;;;;;1.43;1.20;;;;;;;;;;5138672;27;20480;-65
2023/10/11 04:06:38;;;;;;;1.20;1.10;;;;;;;;;;5137910;27;20443;-65
2023/10/11 04:09:22;;;;;;;1.00;1.00;;;;;;;;;;5137837;27;20539;-65
2023/10/11 04:11:54;;;;;;;1.03;1.03;;;;;;;;;;5137653;27;20459;-64
2023/10/11 04:14:25;;;;;;;0.80;0.80;;;;;;;;;;5137846;27;20472;-65
2023/10/11 04:16:56;;;;;;;0.90;0.90;;;;;;;;;;5137403;27;20460;-64
2023/10/11 04:19:23;;;;;;;0.80;0.80;;;;;;;;;;5137501;27;20514;-65
2023/10/11 04:21:57;;;;;;;1.30;1.23;;;;;;;;;;5137592;27;20794;-64
2023/10/11 04:24:24;;;;;;;0.80;0.80;;;;;;;;;;5137379;27;20963;-65
2023/10/11 04:26:57;;;;;;;0.80;0.80;;;;;;;;;;5138245;27;20534;-65
2023/10/11 04:29:31;;;;;;;0.90;0.90;;;;;;;;;;5137303;27;20428;-65
2023/10/11 04:32:14;;;;;;;1.23;1.17;;;;;;;;;;5137526;27;20470;-65
2023/10/11 04:34:48;;;;;;;0.80;0.80;;;;;;;;;;5137105;27;20420;-65
2023/10/11 04:37:27;;;;;;;0.80;0.80;;;;;;;;;;5137003;27;20459;-65
2023/10/11 04:39:56;;;;;;;1.23;1.17;;;;;;;;;;5138086;27;20428;-65
2023/10/11 04:42:27;;;;;;;0.93;0.93;;;;;;;;;;5136944;27;20950;-65
2023/10/11 04:44:56;;;;;;;1.33;1.23;;;;;;;;;;5137012;27;20458;-65
2023/10/11 04:47:25;;;;;;;0.93;0.93;;;;;;;;;;5137167;27;20535;-64
2023/10/11 04:49:53;;;;;;;1.13;1.03;;;;;;;;;;5136759;27;20442;-65
2023/10/11 04:52:25;;;;;;;0.90;0.90;;;;;;;;;;5137296;27;20435;-65
2023/10/11 04:54:54;;;;;;;0.70;0.70;;;;;;;;;;5137492;27;20824;-65
2023/10/11 04:57:32;;;;;;;0.90;0.90;;;;;;;;;;5136919;27;20470;-64
2023/10/11 05:00:00;;;;;;;1.27;1.17;;;;;;;;;;5136051;27;20524;-64
2023/10/11 05:02:32;;;;;;;1.67;1.60;;;;;;;;;;5136811;27;20491;-64
2023/10/11 05:05:00;;;;;;;0.70;0.70;;;;;;;;;;5136581;27;20434;-64
2023/10/11 05:07:28;;;;;;;0.80;0.80;;;;;;;;;;5136471;27;20441;-64
2023/10/11 05:10:01;;;;;;;2.23;2.03;;;;;;;;;;5136717;27;20486;-64
2023/10/11 05:12:28;;;;;;;0.90;0.90;;;;;;;;;;5137126;27;20427;-64
2023/10/11 05:14:59;;;;;;;0.80;0.80;;;;;;;;;;5136836;27;20439;-64
2023/10/11 05:17:41;;;;;;;0.80;0.80;;;;;;;;;;5137069;27;20828;-64
2023/10/11 05:20:23;;;;;;;0.90;0.90;;;;;;;;;;5136772;27;20420;-64
2023/10/11 05:22:49;;;;;;;0.80;0.80;;;;;;;;;;5137394;27;20766;-64
2023/10/11 05:25:39;;;;;;;0.90;0.90;;;;;;;;;;5136661;27;20599;-64
2023/10/11 05:28:26;;;;;;;4.30;3.60;;;;;;;;;;5136146;27;20440;-64
2023/10/11 05:31:19;;;;;;;1.87;1.77;;;;;;;;;;5136301;27;21036;-65
2023/10/11 05:36:48;;;;;;;1.00;1.00;;;;;;;;;;5122013;27;20422;-65
2023/10/11 05:53:14;;;;;;;0.80;0.80;;;;;;;;;;5135698;27;20393;-65
2023/10/11 05:55:41;;;;;;;0.80;0.80;;;;;;;;;;5135851;27;20789;-65
2023/10/11 05:58:08;;;;;;;0.80;0.80;;;;;;;;;;5135862;27;20483;-64
2023/10/11 06:00:38;;;;;;;0.70;0.70;;;;;;;;;;5135751;27;20908;-65
2023/10/11 06:03:06;;;;;;;1.30;1.23;;;;;;;;;;5135668;27;20440;-64
2023/10/11 06:05:40;;;;;;;0.80;0.80;;;;;;;;;;5135958;27;20432;-64
2023/10/11 06:08:15;;;;;;;0.70;0.70;;;;;;;;;;5135246;27;20429;-64
2023/10/11 06:10:42;;;;;;;0.80;0.80;;;;;;;;;;5134615;27;20446;-64
2023/10/11 06:13:16;;;;;;;0.80;0.80;;;;;;;;;;5135459;27;20480;-65
2023/10/11 06:15:58;;;;;;;1.00;1.00;;;;;;;;;;5135844;27;20471;-65
2023/10/11 06:18:39;;;;;;;0.80;0.80;;;;;;;;;;5135314;27;20583;-65
2023/10/11 06:21:18;;;;;;;0.80;0.80;;;;;;;;;;5135096;27;20423;-64
2023/10/11 06:23:48;;;;;;;0.70;0.70;;;;;;;;;;5135582;27;20766;-64
2023/10/11 06:29:03;;;;;;;0.80;0.80;;;;;;;;;;5131514;27;20527;-65
2023/10/11 06:31:34;;;;;;;1.57;1.47;;;;;;;;;;5134825;27;20850;-65
2023/10/11 06:34:03;;;;;;;1.10;1.00;;;;;;;;;;5134727;27;20896;-65
2023/10/11 06:36:35;;;;;;;1.00;0.97;;;;;;;;;;5135021;27;20462;-65
2023/10/11 06:39:20;;;;;;;0.70;0.70;;;;;;;;;;5135271;27;20549;-64
2023/10/11 06:41:50;;;;;;;1.20;1.10;;;;;;;;;;5135167;27;20433;-64
2023/10/11 06:44:18;;;;;;;0.80;0.80;;;;;;;;;;5134951;27;20459;-64
2023/10/11 06:46:47;;;;;;;1.07;1.03;;;;;;;;;;5134510;27;20877;-64
2023/10/11 06:49:15;;;;;;;0.70;0.70;;;;;;;;;;5134787;27;20807;-64
2023/10/11 06:51:43;;;;;;;0.70;0.70;;;;;;;;;;5134708;27;20460;-65
2023/10/11 06:54:11;;;;;;;2.10;2.00;;;;;;;;;;5134580;27;20442;-64
2023/10/11 06:56:40;;;;;;;2.50;2.30;;;;;;;;;;5134885;27;20529;-65
2023/10/11 06:59:07;;;;;;;0.80;0.80;;;;;;;;;;5133892;27;20472;-65
2023/10/11 07:01:35;;;;;;;0.70;0.70;;;;;;;;;;5133893;27;20452;-65
2023/10/11 07:04:03;;;;;;;1.10;1.00;;;;;;;;;;5133824;27;20456;-65
2023/10/11 07:06:35;;;;;;;0.80;0.80;;;;;;;;;;5134241;27;20437;-64
2023/10/11 07:09:05;;;;;;;2.30;2.20;;;;;;;;;;5134200;27;20512;-65
2023/10/11 07:11:43;;;;;;;0.80;0.80;;;;;;;;;;5134531;27;20421;-65
2023/10/11 07:14:15;;;;;;;0.80;0.80;;;;;;;;;;5133876;27;20568;-64
2023/10/11 07:16:44;;;;;;;1.33;1.23;;;;;;;;;;5133756;27;20886;-65
2023/10/11 07:19:15;;;;;;;0.70;0.70;;;;;;;;;;5133357;27;20476;-65
2023/10/11 07:24:38;;;;;;;0.80;0.80;;;;;;;;;;5130276;27;20417;-64
2023/10/11 07:27:08;;;;;;;0.80;0.80;;;;;;;;;;5133865;27;20490;-65
2023/10/11 07:29:36;;;;;;;1.07;1.07;;;;;;;;;;5133457;27;20444;-65
2023/10/11 07:32:04;;;;;;;0.80;0.80;;;;;;;;;;5133628;27;20433;-65
2023/10/11 07:34:31;;;;;;;0.80;0.80;;;;;;;;;;5134111;27;20536;-65
2023/10/11 07:37:03;;;;;;;0.80;0.80;;;;;;;;;;5134080;28;20500;-65
2023/10/11 07:39:33;;;;;;;3.40;1.10;;;;;;;;;;5133796;28;20490;-65
2023/10/11 07:42:06;;;;;;;0.77;0.77;;;;;;;;;;5134134;28;20427;-65
2023/10/11 07:44:36;;;;;;;0.80;0.80;;;;;;;;;;5134283;28;20421;-64
2023/10/11 07:47:06;;;;;;;0.70;0.70;;;;;;;;;;5133883;28;20441;-64
2023/10/11 07:49:38;;;;;;;0.83;0.83;;;;;;;;;;5133920;28;20433;-64
2023/10/11 07:52:08;;;;;;;0.87;0.87;;;;;;;;;;5133647;28;20431;-64
2023/10/11 07:54:39;;;;;;;0.80;0.80;;;;;;;;;;5133662;28;20566;-65
2023/10/11 07:57:13;;;;;;;0.80;0.80;;;;;;;;;;5134640;27;20415;-64
2023/10/11 07:59:40;;;;;;;1.37;1.27;;;;;;;;;;5134185;28;20424;-65
2023/10/11 08:02:09;;;;;;;5.33;1.80;;;;;;;;;;5133874;28;20786;-64
2023/10/11 08:04:47;;;;;;;0.80;0.80;;;;;;;;;;5134173;28;20516;-64
2023/10/11 08:07:16;;;;;;;0.80;0.80;;;;;;;;;;5133834;28;20544;-65
2023/10/11 08:09:46;;;;;;;0.80;0.80;;;;;;;;;;5133363;28;20449;-64
2023/10/11 08:12:15;;;;;;;1.83;1.73;;;;;;;;;;5133726;28;20519;-64
2023/10/11 08:14:44;;;;;;;0.80;0.80;;;;;;;;;;5133565;28;20447;-65
2023/10/11 08:17:12;;;;;;;0.80;0.80;;;;;;;;;;5133274;28;20441;-65
2023/10/11 08:19:44;;;;;;;0.77;0.77;;;;;;;;;;5133550;28;20530;-64
2023/10/11 08:22:14;;;;;;;0.70;0.70;;;;;;;;;;5133752;28;20453;-65
2023/10/11 08:24:48;;;;;;;0.80;0.80;;;;;;;;;;5133296;28;20944;-65
2023/10/11 08:27:23;;;;;;;1.83;1.73;;;;;;;;;;5133417;28;20436;-64
2023/10/11 08:29:54;;;;;;;0.90;0.90;;;;;;;;;;5133617;28;20440;-65
2023/10/11 08:32:26;;;;;;;0.97;0.97;;;;;;;;;;5133492;28;20944;-64
2023/10/11 08:34:54;;;;;;;0.70;0.70;;;;;;;;;;5135931;27;20425;-65
2023/10/11 08:37:21;;;;;;;0.70;0.70;;;;;;;;;;5137203;27;20444;-64
2023/10/11 08:39:50;;;;;;;0.83;0.83;;;;;;;;;;5136928;27;20476;-64
2023/10/11 08:42:19;;;;;;;0.90;0.90;;;;;;;;;;5137454;27;20511;-69
2023/10/11 08:44:46;;;;;;;0.90;0.90;;;;;;;;;;5136666;27;20544;-66
2023/10/11 08:47:16;;;;;;;0.87;0.83;;;;;;;;;;5136764;27;20513;-61
2023/10/11 08:49:48;;;;;;;0.80;0.80;;;;;;;;;;5136688;27;20437;-65
2023/10/11 08:52:18;;;;;;;0.80;0.80;;;;;;;;;;5136710;27;20486;-62
2023/10/11 08:54:46;;;;;;;0.70;0.70;;;;;;;;;;5137128;27;20737;-63
2023/10/11 08:57:13;;;;;;;0.70;0.70;;;;;;;;;;5136773;27;20433;-62
2023/10/11 08:59:50;;;;;;;0.90;0.90;;;;;;;;;;5136418;27;20484;-62
2023/10/11 09:02:19;;;;;;;0.70;0.70;;;;;;;;;;5136715;27;20456;-62
2023/10/11 09:04:56;;;;;;;0.93;0.93;;;;;;;;;;5136464;27;20538;-62
2023/10/11 09:07:36;;;;;;;0.90;0.90;;;;;;;;;;5136342;27;20426;-61
2023/10/11 09:10:06;;;;;;;0.90;0.90;;;;;;;;;;5136459;27;20425;-62
2023/10/11 09:12:45;;;;;;;1.93;1.83;;;;;;;;;;5136576;27;20434;-62
2023/10/11 09:15:14;;;;;;;0.70;0.70;;;;;;;;;;5136251;27;20513;-63
2023/10/11 09:17:42;;;;;;;0.80;0.80;;;;;;;;;;5136560;27;20430;-63
2023/10/11 09:20:15;;;;;;;0.70;0.70;;;;;;;;;;5137025;27;20432;-63
2023/10/11 09:22:47;;;;;;;0.80;0.80;;;;;;;;;;5136959;27;20429;-63
2023/10/11 09:25:22;;;;;;;0.90;0.90;;;;;;;;;;5136817;27;20418;-62
2023/10/11 09:27:56;;;;;;;1.13;1.13;;;;;;;;;;5136506;27;20509;-62
2023/10/11 09:30:27;;;;;;;1.10;1.00;;;;;;;;;;5136109;27;20481;-62
2023/10/11 09:32:59;;;;;;;0.70;0.70;;;;;;;;;;5136267;27;20437;-64
2023/10/11 09:35:27;;;;;;;0.90;0.90;;;;;;;;;;5135624;27;20802;-66
2023/10/11 09:37:56;;;;;;;0.80;0.80;;;;;;;;;;5135696;27;20434;-68
2023/10/11 09:40:28;;;;;;;0.70;0.70;;;;;;;;;;5136177;27;20499;-67
2023/10/11 09:43:00;;;;;;;1.43;1.37;;;;;;;;;;5136234;27;20418;-64
2023/10/11 09:45:40;;;;;;;0.70;0.70;;;;;;;;;;5135410;27;20471;-66
2023/10/11 09:48:08;;;;;;;1.00;1.00;;;;;;;;;;5136475;27;20544;-63
2023/10/11 09:50:40;;;;;;;0.70;0.70;;;;;;;;;;5135821;27;20445;-65
2023/10/11 09:53:09;;;;;;;0.80;0.80;;;;;;;;;;5136525;27;20429;-64
2023/10/11 09:55:38;;;;;;;0.90;0.90;;;;;;;;;;5136055;27;20464;-66
2023/10/11 09:58:12;;;;;;;1.03;0.97;;;;;;;;;;5135371;27;20514;-65
2023/10/11 10:00:43;;;;;;;5.03;1.33;;;;;;;;;;5136073;27;20452;-64
